Aérodrome :
LOGIN :

S'inscrire | Disclaimer

   EN    FR    IT 

 










Légende :    VFR   VFR Marginal   IFR   IFR Intensif   IFR Très Intensif
Visi : 
Plafond : 
>= 8 km
>= 3000ft
5 à 8 km
1000 à 3000 ft
1500m à 5 km
500 à 1000 ft
800 à 1500m
200 à 500 ft
< 800m
< 200 ft
Symboles :   Orages  Brouillard  Fortes neiges  Fortes précipitations  Vent > 20 kt
SIGMETs :   Divers  Orages  Givrage  Turbulence  Onde Orograph.  Cendres Volcan.






- Altitude de l'aérodrome : 659 ft
- Code IATA : LGG


EBLG - Liège

DERNIER METAR :
  • 151750Z 18009KT 9999 BKN021 05/01 Q1001 NOSIG

METARs EXPIRÉS :
  • 151720Z 16007KT 9999 BKN021 05/01 Q1001 NOSIG
  • 151650Z 16007KT 120V210 9999 BKN021 05/01 Q1001 NOSIG
  • 151620Z 17009KT 9999 BKN020 05/01 Q1001 NOSIG
  • 151550Z 17008KT 9999 BKN021 05/01 Q1000 NOSIG
  • 151520Z 18008KT 140V200 9999 SCT021 BKN027 06/02 Q1000 NOSIG
  • 151450Z 17008KT 120V200 9999 BKN024 06/02 Q0999 NOSIG

TAF TAF EBLG
Valide du 15 à 18h jusqu'au 17 à 00h UTC


151720Z 1518/1624 18008KT 9999 SCT020



MET'MAP, la Météo Aéronautique d'un coup d'oeil ! - Copyright ORBIFLY Décembre 2007 - Disclaimer

ORBIFLY MET'MAP TEAM :

Programmation & Développement : Alexandra Zaïnal
Conception & Développement : Baudouin d'Aumeries
Co-Programmation & Développement : Marc-Olivier Méhu
Soutien technique & logistique : Manuel Goepfert

Contact : metmap@orbifly.com




SOURCES & CREDITS :

   NOAA